Country
Station

 

Weather  for  Bandarabbass  -  Iran    Iran

  
28 °C (82 °F)
    
 
 

Current METAR for Bandarabbass is :

OIKB 211800Z 02004KT CAVOK 28/20 Q1008 A2977

 

This is a report for Bandarabbass - Iran.
 
The report was made 23 minutes ago, at 18:00 UTC .
The wind was blowing at a speed of 2.1 meters per second (4.6 miles per hour) from north/northeast (020°).
 
The temperature was 28 °C (82 °F), with a dew-point at 20 °C (68 °F).
The temperature felt like 29 °C (85 °F).
 
The atmospheric pressure was 1008 hPa (29.77 inHg).
The relative humidity was 61.9%.
 
There were no clouds below 1500 meter (5000 feet) and no cumulonimbus clouds.
 
The overall visibility was greater than 10 kilometers (6.2 miles).
 

 
 
 
 

Country :   A   B   C   D   E   F   G   H   I   J   K   L   M   N   O   P   Q   R   S   T   U   V   W   Y   Z

 

Site Info  |  Disclaimer  |  Credits  |  Privacy
Contact us  |  Add to favorites
© 2013-2018 METARs - All rights reserved